createdAt,value
2018-12-30T00:01:16.412Z,17.90
2018-12-30T00:03:47.696Z,17.33
2018-12-30T00:06:19.208Z,21.07
2018-12-30T00:08:50.837Z,16.37
2018-12-30T00:11:22.128Z,15.67
2018-12-30T00:13:53.398Z,19.80
2018-12-30T00:16:24.545Z,15.93
2018-12-30T00:18:55.755Z,15.87
2018-12-30T00:21:26.911Z,17.80
2018-12-30T00:23:58.144Z,16.53
2018-12-30T00:26:29.217Z,16.03
2018-12-30T00:29:00.731Z,15.93
2018-12-30T00:31:31.919Z,14.77
2018-12-30T00:34:03.257Z,14.30
2018-12-30T00:36:34.650Z,17.93
2018-12-30T00:39:07.485Z,17.30
2018-12-30T00:41:38.640Z,18.10
2018-12-30T00:44:09.746Z,17.43
2018-12-30T00:46:41.064Z,15.40
2018-12-30T00:49:12.331Z,17.37
2018-12-30T00:51:43.550Z,16.40
2018-12-30T00:54:14.775Z,21.13
2018-12-30T00:56:45.920Z,17.40
2018-12-30T00:59:17.189Z,16.63
2018-12-30T01:01:48.343Z,15.93
2018-12-30T01:04:20.054Z,19.53
2018-12-30T01:06:51.273Z,16.17
2018-12-30T01:09:22.674Z,17.87
2018-12-30T01:11:53.853Z,17.43
2018-12-30T01:14:25.099Z,16.27
2018-12-30T01:16:56.316Z,14.80
2018-12-30T01:19:27.694Z,15.97
2018-12-30T01:21:58.764Z,19.27
2018-12-30T01:24:30.893Z,15.00
2018-12-30T01:27:02.296Z,16.43
2018-12-30T01:29:33.539Z,18.53
2018-12-30T01:32:04.668Z,16.60
2018-12-30T01:34:37.573Z,17.50
2018-12-30T01:37:08.719Z,16.50
2018-12-30T01:39:39.915Z,17.23
2018-12-30T01:42:11.172Z,18.43
2018-12-30T01:44:42.591Z,20.73
2018-12-30T01:47:13.757Z,20.63
2018-12-30T01:49:45.113Z,19.37
2018-12-30T01:52:16.412Z,18.20
2018-12-30T01:54:47.702Z,18.43
2018-12-30T01:57:18.945Z,18.33
2018-12-30T01:59:50.142Z,18.27
2018-12-30T02:02:21.339Z,19.13
2018-12-30T02:04:52.797Z,19.33
2018-12-30T02:07:24.080Z,17.80
2018-12-30T02:09:55.303Z,18.93
2018-12-30T02:12:26.702Z,20.33
2018-12-30T02:14:57.987Z,17.80
2018-12-30T02:17:29.164Z,20.73
2018-12-30T02:20:00.357Z,20.97
2018-12-30T02:22:31.755Z,18.73
2018-12-30T02:25:02.982Z,24.00
2018-12-30T02:27:34.123Z,21.80
2018-12-30T02:30:06.003Z,20.03
2018-12-30T02:32:37.214Z,20.37
2018-12-30T02:35:08.547Z,22.87
2018-12-30T02:37:39.737Z,16.77
2018-12-30T02:40:10.935Z,18.73
2018-12-30T02:42:43.057Z,18.63
2018-12-30T02:45:14.425Z,18.50
2018-12-30T02:47:45.738Z,20.37
2018-12-30T02:50:16.848Z,17.50
2018-12-30T02:52:48.777Z,23.13
2018-12-30T02:55:20.159Z,20.77
2018-12-30T02:57:51.410Z,17.70
2018-12-30T03:00:22.779Z,19.97
2018-12-30T03:02:53.800Z,21.30
2018-12-30T03:05:25.487Z,21.23
2018-12-30T03:07:56.770Z,18.67
2018-12-30T03:10:27.918Z,20.87
2018-12-30T03:13:00.810Z,19.90
2018-12-30T03:15:32.132Z,21.00
2018-12-30T03:18:03.331Z,22.00
2018-12-30T03:20:34.577Z,20.77
2018-12-30T03:23:06.033Z,20.33
2018-12-30T03:25:37.623Z,18.30
2018-12-30T03:28:08.668Z,21.67
2018-12-30T03:30:40.183Z,17.30
2018-12-30T03:33:11.523Z,16.00
2018-12-30T03:35:42.723Z,19.10
2018-12-30T03:40:40.203Z,16.73
2018-12-30T03:43:11.567Z,16.30
2018-12-30T03:45:43.026Z,16.17
2018-12-30T03:48:14.303Z,14.43
2018-12-30T03:50:45.507Z,16.77
2018-12-30T03:53:16.809Z,15.63
2018-12-30T03:55:47.935Z,19.20
2018-12-30T03:58:19.097Z,14.00
2018-12-30T04:00:50.290Z,17.60
2018-12-30T04:03:21.492Z,14.53
2018-12-30T04:05:52.786Z,18.37
2018-12-30T04:08:23.976Z,21.10
2018-12-30T04:10:55.223Z,18.43
2018-12-30T04:13:26.305Z,15.47
2018-12-30T04:15:57.457Z,15.83
2018-12-30T04:18:28.594Z,18.03
2018-12-30T04:20:59.788Z,16.77
2018-12-30T04:23:31.853Z,17.40
2018-12-30T04:26:03.221Z,16.93
2018-12-30T04:28:34.345Z,19.83
2018-12-30T04:31:05.792Z,18.07
2018-12-30T04:33:36.899Z,20.33
2018-12-30T04:36:08.254Z,17.13
2018-12-30T04:38:39.527Z,19.07
2018-12-30T04:41:10.691Z,18.07
2018-12-30T04:43:41.950Z,20.57
2018-12-30T04:46:13.198Z,18.37
2018-12-30T04:48:44.376Z,22.23
2018-12-30T04:51:15.566Z,20.50
2018-12-30T04:53:46.865Z,19.57
2018-12-30T04:56:18.222Z,20.80
2018-12-30T04:58:49.424Z,21.77
2018-12-30T05:01:20.818Z,19.03
2018-12-30T05:03:53.132Z,18.63
2018-12-30T05:06:24.537Z,18.83
2018-12-30T05:08:55.701Z,17.67
2018-12-30T05:11:28.871Z,21.83
2018-12-30T05:14:00.104Z,19.60
2018-12-30T05:16:31.672Z,21.23
2018-12-30T05:19:02.851Z,20.33
2018-12-30T05:21:34.063Z,21.20
2018-12-30T05:24:05.318Z,22.27
2018-12-30T05:26:36.588Z,18.97
2018-12-30T05:29:07.840Z,19.87
2018-12-30T05:31:38.939Z,24.70
2018-12-30T05:34:10.025Z,19.90
2018-12-30T05:36:41.219Z,21.67
2018-12-30T05:39:12.285Z,24.43
2018-12-30T05:41:43.559Z,22.03
2018-12-30T05:44:14.862Z,41.77
2018-12-30T05:46:46.046Z,25.73
2018-12-30T05:49:17.215Z,25.87
2018-12-30T05:51:48.405Z,26.83
2018-12-30T05:54:19.595Z,23.80
2018-12-30T05:56:50.908Z,28.33
2018-12-30T05:59:21.963Z,25.80
2018-12-30T06:01:53.337Z,106.50
2018-12-30T06:04:24.455Z,24.90
2018-12-30T06:06:55.645Z,62.07
2018-12-30T06:09:26.653Z,99.23
2018-12-30T06:11:57.969Z,34.67
2018-12-30T06:14:29.120Z,23.97
2018-12-30T06:17:00.319Z,25.53
2018-12-30T06:19:31.544Z,22.40
2018-12-30T06:22:02.709Z,43.57
2018-12-30T06:24:33.876Z,54.73
2018-12-30T06:27:05.160Z,125.67
2018-12-30T06:29:36.392Z,34.13
2018-12-30T06:32:07.606Z,32.10
2018-12-30T06:34:38.895Z,28.37
2018-12-30T06:37:10.091Z,32.73
2018-12-30T06:39:41.401Z,36.93
2018-12-30T06:42:12.744Z,38.50
2018-12-30T06:44:44.016Z,41.80
2018-12-30T06:47:15.421Z,34.27
2018-12-30T06:49:46.590Z,31.53
2018-12-30T06:52:17.762Z,36.53
2018-12-30T06:54:48.906Z,37.07
2018-12-30T06:57:20.107Z,33.17
2018-12-30T06:59:51.419Z,35.13
2018-12-30T07:02:22.625Z,30.47
2018-12-30T07:04:54.110Z,97.27
2018-12-30T07:07:25.442Z,62.87
2018-12-30T07:09:56.631Z,39.73
2018-12-30T07:12:28.020Z,37.27
2018-12-30T07:14:59.205Z,28.40
2018-12-30T07:17:30.511Z,34.77
2018-12-30T07:20:01.893Z,34.70
2018-12-30T07:22:33.314Z,32.77
2018-12-30T07:25:06.236Z,48.43
2018-12-30T07:27:37.484Z,46.93
2018-12-30T07:30:08.623Z,49.60
2018-12-30T07:32:39.852Z,46.97
2018-12-30T07:35:11.248Z,38.37
2018-12-30T07:37:42.525Z,38.20
2018-12-30T07:40:13.666Z,41.73
2018-12-30T07:42:44.874Z,46.43
2018-12-30T07:45:16.291Z,40.93
2018-12-30T07:47:47.531Z,57.37
2018-12-30T07:50:18.856Z,44.33
2018-12-30T07:52:50.021Z,44.27
2018-12-30T07:55:21.333Z,42.93
2018-12-30T07:57:52.567Z,45.73
2018-12-30T08:00:24.041Z,146.60
2018-12-30T08:02:55.251Z,70.47
2018-12-30T08:05:26.553Z,52.00
2018-12-30T08:07:58.084Z,43.60
2018-12-30T08:10:29.551Z,51.00
2018-12-30T08:13:01.974Z,51.17
2018-12-30T08:15:33.183Z,42.77
2018-12-30T08:18:04.653Z,49.90
2018-12-30T08:20:36.133Z,45.73
2018-12-30T08:23:07.317Z,48.67
2018-12-30T08:25:38.475Z,73.00
2018-12-30T08:28:09.718Z,49.17
2018-12-30T08:30:41.026Z,50.03
2018-12-30T08:33:12.434Z,51.93
2018-12-30T08:35:45.550Z,55.13
2018-12-30T08:38:16.736Z,52.87
2018-12-30T08:40:48.116Z,51.10
2018-12-30T08:43:19.464Z,34.00
2018-12-30T08:45:50.899Z,26.83
2018-12-30T08:48:21.988Z,29.60
2018-12-30T08:50:53.281Z,31.90
2018-12-30T08:53:29.353Z,28.87
2018-12-30T08:55:57.773Z,21.67
2018-12-30T08:58:29.077Z,22.67
2018-12-30T09:01:00.360Z,27.07
2018-12-30T09:03:32.632Z,25.60
2018-12-30T09:06:04.009Z,28.07
2018-12-30T09:08:35.306Z,23.20
2018-12-30T09:11:06.875Z,27.30
2018-12-30T09:13:38.057Z,26.57
2018-12-30T09:16:09.425Z,39.27
2018-12-30T09:18:40.769Z,41.47
2018-12-30T09:21:11.931Z,44.63
2018-12-30T09:23:43.200Z,58.20
2018-12-30T09:26:14.367Z,47.43
2018-12-30T09:28:45.556Z,55.00
2018-12-30T09:31:16.850Z,49.23
2018-12-30T09:33:48.083Z,49.27
2018-12-30T09:36:19.236Z,54.77
2018-12-30T09:38:50.685Z,59.30
2018-12-30T09:41:21.905Z,63.90
2018-12-30T09:43:53.199Z,68.70
2018-12-30T09:46:24.556Z,71.60
2018-12-30T09:48:55.767Z,60.03
2018-12-30T09:51:27.049Z,70.97
2018-12-30T09:53:58.244Z,58.67
2018-12-30T09:56:29.359Z,42.00
2018-12-30T09:59:00.593Z,41.80
2018-12-30T10:01:31.721Z,44.00
2018-12-30T10:04:02.897Z,33.77
2018-12-30T10:06:34.083Z,32.03
2018-12-30T10:09:07.853Z,31.10
2018-12-30T10:11:39.306Z,34.23
2018-12-30T10:14:11.409Z,32.53
2018-12-30T10:16:42.781Z,39.57
2018-12-30T10:19:15.137Z,26.50
2018-12-30T10:21:46.428Z,26.40
2018-12-30T10:24:17.682Z,29.43
2018-12-30T10:26:48.842Z,23.03
2018-12-30T10:29:19.906Z,24.00
2018-12-30T10:31:51.124Z,27.10
2018-12-30T10:34:22.458Z,30.70
2018-12-30T10:36:53.704Z,23.50
2018-12-30T10:39:24.942Z,29.33
2018-12-30T10:41:57.237Z,32.43
2018-12-30T10:44:28.620Z,29.07
2018-12-30T10:46:59.704Z,32.67
2018-12-30T10:49:31.022Z,27.00
2018-12-30T10:52:02.135Z,25.67
2018-12-30T10:54:33.354Z,29.93
2018-12-30T10:57:04.584Z,28.50
2018-12-30T10:59:35.856Z,23.43
2018-12-30T11:02:07.114Z,28.40
2018-12-30T11:04:38.182Z,21.20
2018-12-30T11:07:10.521Z,21.53
2018-12-30T11:09:41.828Z,21.00
2018-12-30T11:12:13.064Z,22.10
2018-12-30T11:14:44.294Z,26.07
2018-12-30T11:17:15.519Z,26.10
2018-12-30T11:19:46.714Z,26.83
2018-12-30T11:22:18.251Z,25.37
2018-12-30T11:24:49.347Z,34.33
2018-12-30T11:27:20.569Z,24.57
2018-12-30T11:29:52.044Z,22.13
2018-12-30T11:32:23.456Z,24.30
2018-12-30T11:34:54.691Z,24.50
2018-12-30T11:37:25.815Z,31.33
2018-12-30T11:39:57.300Z,25.10
2018-12-30T11:42:28.551Z,27.47
2018-12-30T11:44:59.847Z,24.90
2018-12-30T11:47:31.171Z,25.50
2018-12-30T11:50:02.352Z,28.00
2018-12-30T11:52:33.602Z,27.07
2018-12-30T11:55:05.026Z,31.23
2018-12-30T11:57:36.220Z,24.03
2018-12-30T12:00:08.648Z,29.90
2018-12-30T12:02:39.996Z,24.97
2018-12-30T12:05:11.281Z,27.50
2018-12-30T12:07:42.512Z,21.77
2018-12-30T12:10:13.774Z,24.23
2018-12-30T12:12:48.804Z,25.57
2018-12-30T12:15:18.072Z,22.83
2018-12-30T12:17:49.440Z,32.40
2018-12-30T12:20:20.690Z,28.30
2018-12-30T12:22:51.960Z,25.47
2018-12-30T12:25:23.105Z,26.50
2018-12-30T12:27:54.310Z,21.60
2018-12-30T12:30:25.609Z,27.73
2018-12-30T12:32:56.864Z,27.40
2018-12-30T12:35:28.266Z,27.03
2018-12-30T12:37:59.378Z,25.00
2018-12-30T12:40:30.562Z,27.40
2018-12-30T12:43:02.049Z,25.13
2018-12-30T12:45:33.210Z,27.20
2018-12-30T12:48:04.617Z,26.87
2018-12-30T12:50:35.735Z,31.23
2018-12-30T12:53:06.967Z,35.37
2018-12-30T12:55:38.207Z,40.37
2018-12-30T12:58:09.510Z,33.23
2018-12-30T13:00:40.595Z,30.47
2018-12-30T13:03:11.770Z,35.77
2018-12-30T13:05:43.074Z,34.07
2018-12-30T13:08:14.239Z,34.47
2018-12-30T13:10:45.311Z,29.03
2018-12-30T13:13:16.513Z,27.60
2018-12-30T13:15:47.912Z,25.97
2018-12-30T13:18:19.169Z,25.53
2018-12-30T13:20:50.443Z,24.67
2018-12-30T13:23:21.554Z,26.10
2018-12-30T13:25:52.830Z,24.50
2018-12-30T13:28:24.007Z,27.13
2018-12-30T13:30:55.380Z,29.80
2018-12-30T13:33:26.647Z,21.97
2018-12-30T13:35:57.823Z,26.23
2018-12-30T13:38:28.878Z,24.77
2018-12-30T13:41:00.106Z,26.17
2018-12-30T13:43:32.392Z,28.93
2018-12-30T13:46:03.599Z,26.90
2018-12-30T13:48:34.893Z,24.20
2018-12-30T13:51:06.050Z,22.60
2018-12-30T13:53:37.264Z,22.67
2018-12-30T13:56:08.606Z,23.40
2018-12-30T13:58:39.863Z,21.73
2018-12-30T14:01:11.166Z,23.67
2018-12-30T14:03:44.383Z,26.47
2018-12-30T14:06:15.723Z,24.10
2018-12-30T14:08:46.972Z,24.43
2018-12-30T14:11:18.367Z,26.40
2018-12-30T14:13:49.919Z,27.77
2018-12-30T14:16:21.512Z,30.33
2018-12-30T14:18:52.697Z,27.57
2018-12-30T14:21:24.323Z,24.20
2018-12-30T14:23:55.341Z,25.63
2018-12-30T14:26:27.643Z,25.40
2018-12-30T14:28:58.798Z,26.50
2018-12-30T14:31:30.000Z,26.87
2018-12-30T14:34:01.284Z,28.57
2018-12-30T14:36:32.493Z,27.23
2018-12-30T14:39:04.192Z,28.60
2018-12-30T14:41:35.249Z,24.33
2018-12-30T14:44:06.429Z,24.63
2018-12-30T14:46:37.646Z,25.23
2018-12-30T14:49:08.703Z,32.13
2018-12-30T14:51:39.954Z,32.47
2018-12-30T14:54:20.244Z,33.53
2018-12-30T14:56:51.508Z,33.97
2018-12-30T14:59:22.718Z,30.37
2018-12-30T15:01:53.895Z,27.87
2018-12-30T15:04:25.144Z,25.93
2018-12-30T15:06:56.533Z,25.37
2018-12-30T15:09:35.432Z,25.67
2018-12-30T15:12:00.605Z,31.40
2018-12-30T15:14:31.867Z,31.63
2018-12-30T15:17:03.155Z,45.17
2018-12-30T15:19:34.240Z,56.03
2018-12-30T15:22:05.586Z,27.83
2018-12-30T15:24:36.804Z,27.80
2018-12-30T15:27:08.287Z,59.17
2018-12-30T15:29:39.507Z,29.73
2018-12-30T15:32:10.829Z,31.60
2018-12-30T15:34:42.018Z,28.27
2018-12-30T15:37:13.357Z,33.27
2018-12-30T15:39:44.550Z,33.47
2018-12-30T15:42:19.028Z,44.67
2018-12-30T15:44:48.910Z,42.90
2018-12-30T15:47:19.936Z,47.67
2018-12-30T15:49:51.226Z,53.93
2018-12-30T15:52:22.519Z,53.63
2018-12-30T15:54:54.231Z,79.67
2018-12-30T15:57:25.406Z,61.80
2018-12-30T15:59:56.589Z,64.70
2018-12-30T16:02:27.892Z,58.70
2018-12-30T16:04:59.119Z,53.83
2018-12-30T16:07:30.442Z,57.43
2018-12-30T16:10:01.738Z,53.30
2018-12-30T16:12:32.976Z,51.70
2018-12-30T16:15:04.453Z,69.57
2018-12-30T16:17:36.783Z,53.47
2018-12-30T16:20:09.222Z,59.60
2018-12-30T16:22:40.364Z,59.50
2018-12-30T16:25:11.599Z,58.67
2018-12-30T16:27:42.979Z,59.53
2018-12-30T16:30:14.277Z,84.67
2018-12-30T16:32:45.511Z,68.37
2018-12-30T16:35:16.746Z,71.87
2018-12-30T16:37:49.408Z,72.77
2018-12-30T16:40:20.663Z,77.17
2018-12-30T16:42:51.894Z,71.70
2018-12-30T16:45:23.125Z,71.60
2018-12-30T16:47:54.284Z,74.03
2018-12-30T16:50:25.657Z,78.07
2018-12-30T16:52:56.950Z,88.23
2018-12-30T16:55:34.806Z,82.87
2018-12-30T16:58:01.323Z,86.03
2018-12-30T17:00:32.739Z,85.93
2018-12-30T17:03:04.111Z,78.27
2018-12-30T17:05:35.481Z,82.57
2018-12-30T17:08:06.527Z,88.03
2018-12-30T17:10:37.686Z,113.63
2018-12-30T17:13:08.969Z,102.40
2018-12-30T17:15:40.304Z,191.17
2018-12-30T17:18:11.720Z,175.23
2018-12-30T17:20:42.951Z,179.50
2018-12-30T17:23:14.204Z,203.03
2018-12-30T17:25:45.527Z,273.30
2018-12-30T17:28:16.868Z,256.10
2018-12-30T17:30:48.191Z,214.60
2018-12-30T17:33:19.710Z,167.37
2018-12-30T17:35:50.912Z,156.83
2018-12-30T17:38:23.605Z,142.13
2018-12-30T17:41:01.514Z,152.77
2018-12-30T17:43:27.798Z,140.23
2018-12-30T17:45:59.020Z,172.70
2018-12-30T17:48:30.409Z,147.93
2018-12-30T17:51:01.676Z,159.57
2018-12-30T17:53:32.937Z,154.63
2018-12-30T17:56:04.697Z,202.60
2018-12-30T17:58:36.035Z,209.27
2018-12-30T18:01:07.302Z,224.77
2018-12-30T18:03:38.592Z,286.23
2018-12-30T18:06:10.788Z,340.20
2018-12-30T18:08:42.153Z,331.37
2018-12-30T18:11:15.666Z,320.50
2018-12-30T18:13:46.850Z,241.47
2018-12-30T18:16:18.148Z,254.27
2018-12-30T18:18:49.428Z,256.07
2018-12-30T18:21:20.663Z,222.83
2018-12-30T18:23:51.908Z,219.80
2018-12-30T18:26:23.123Z,226.33
2018-12-30T18:28:54.385Z,221.90
2018-12-30T18:31:25.618Z,202.80
2018-12-30T18:33:56.658Z,215.07
2018-12-30T18:36:27.953Z,233.20
2018-12-30T18:38:59.368Z,228.83
2018-12-30T18:41:30.668Z,218.43
2018-12-30T18:44:01.985Z,201.60
2018-12-30T18:46:33.121Z,185.60
2018-12-30T18:49:04.592Z,181.93
2018-12-30T18:51:35.805Z,168.23
2018-12-30T18:54:07.154Z,145.03
2018-12-30T18:56:38.480Z,148.47
2018-12-30T18:59:09.680Z,138.90
2018-12-30T19:01:40.968Z,145.97
2018-12-30T19:04:12.419Z,148.63
2018-12-30T19:06:46.567Z,134.07
2018-12-30T19:09:17.760Z,136.87
2018-12-30T19:11:48.991Z,127.63
2018-12-30T19:14:20.527Z,139.80
2018-12-30T19:16:51.767Z,146.70
2018-12-30T19:19:22.937Z,141.07
2018-12-30T19:21:54.835Z,143.87
2018-12-30T19:24:26.238Z,152.53
2018-12-30T19:26:57.372Z,171.13
2018-12-30T19:29:28.712Z,140.20
2018-12-30T19:31:59.935Z,169.43
2018-12-30T19:34:31.331Z,161.87
2018-12-30T19:37:02.669Z,178.83
2018-12-30T19:39:33.982Z,199.67
2018-12-30T19:42:06.251Z,195.93
2018-12-30T19:44:37.510Z,194.30
2018-12-30T19:47:08.689Z,208.17
2018-12-30T19:49:40.093Z,203.17
2018-12-30T19:52:11.151Z,238.27
2018-12-30T19:54:42.644Z,226.13
2018-12-30T19:57:13.787Z,236.23
2018-12-30T19:59:47.227Z,209.97
2018-12-30T20:02:18.524Z,179.87
2018-12-30T20:04:49.938Z,166.70
2018-12-30T20:07:21.340Z,159.43
2018-12-30T20:09:52.682Z,156.03
2018-12-30T20:12:24.118Z,154.50
2018-12-30T20:14:55.288Z,152.97
2018-12-30T20:17:26.605Z,153.73
2018-12-30T20:19:58.022Z,141.67
2018-12-30T20:22:29.328Z,142.67
2018-12-30T20:25:00.664Z,137.73
2018-12-30T20:27:31.991Z,127.27
2018-12-30T20:30:03.257Z,125.80
2018-12-30T20:32:34.473Z,123.40
2018-12-30T20:35:07.775Z,132.40
2018-12-30T20:37:39.243Z,146.57
2018-12-30T20:40:10.695Z,128.10
2018-12-30T20:42:41.996Z,129.83
2018-12-30T20:45:13.540Z,141.93
2018-12-30T20:47:44.760Z,137.50
2018-12-30T20:50:16.073Z,126.73
2018-12-30T20:52:47.267Z,123.47
2018-12-30T20:55:18.549Z,113.53
2018-12-30T20:57:49.914Z,126.60
2018-12-30T21:00:21.272Z,127.77
2018-12-30T21:02:52.552Z,116.50
2018-12-30T21:05:25.856Z,124.77
2018-12-30T21:07:56.913Z,114.27
2018-12-30T21:10:28.206Z,117.93
2018-12-30T21:13:00.608Z,119.33
2018-12-30T21:15:31.850Z,123.47
2018-12-30T21:18:03.058Z,126.43
2018-12-30T21:20:34.604Z,120.90
2018-12-30T21:23:06.013Z,137.23
2018-12-30T21:25:37.370Z,135.80
2018-12-30T21:28:08.697Z,144.97
2018-12-30T21:30:41.183Z,136.37
2018-12-30T21:33:12.738Z,151.33
2018-12-30T21:35:45.426Z,146.67
2018-12-30T21:38:16.852Z,144.93
2018-12-30T21:40:48.014Z,165.67
2018-12-30T21:43:19.414Z,127.67
2018-12-30T21:45:50.710Z,127.73
2018-12-30T21:48:21.902Z,122.13
2018-12-30T21:50:53.000Z,119.10
2018-12-30T21:53:24.445Z,129.50
2018-12-30T21:55:55.682Z,115.70
2018-12-30T21:58:26.860Z,130.47
2018-12-30T22:00:58.155Z,181.20
2018-12-30T22:03:29.379Z,129.47
2018-12-30T22:06:00.669Z,119.23
2018-12-30T22:08:31.910Z,114.33
2018-12-30T22:11:03.067Z,114.43
2018-12-30T22:13:34.416Z,120.93
2018-12-30T22:16:06.912Z,116.87
2018-12-30T22:18:37.971Z,115.93
2018-12-30T22:21:09.316Z,113.73
2018-12-30T22:23:40.493Z,108.67
2018-12-30T22:26:12.042Z,123.70
2018-12-30T22:28:43.364Z,114.73
2018-12-30T22:31:14.648Z,120.03
2018-12-30T22:33:45.956Z,123.27
2018-12-30T22:36:17.064Z,154.83
2018-12-30T22:38:52.849Z,158.43
2018-12-30T22:41:22.499Z,155.17
2018-12-30T22:43:53.648Z,142.23
2018-12-30T22:46:27.136Z,151.03
2018-12-30T22:48:58.324Z,162.93
2018-12-30T22:51:29.603Z,181.60
2018-12-30T22:54:02.232Z,167.57
2018-12-30T22:56:33.586Z,161.87
2018-12-30T22:59:05.002Z,145.57
2018-12-30T23:01:39.755Z,139.70
2018-12-30T23:04:10.888Z,156.57
2018-12-30T23:06:42.280Z,187.70
2018-12-30T23:09:13.354Z,186.70
2018-12-30T23:11:44.683Z,190.83
2018-12-30T23:14:15.774Z,174.27
2018-12-30T23:16:46.929Z,200.37
2018-12-30T23:19:18.160Z,230.77
2018-12-30T23:21:49.338Z,242.07
2018-12-30T23:24:20.612Z,191.57
2018-12-30T23:26:51.962Z,202.80
2018-12-30T23:29:23.230Z,197.37
2018-12-30T23:31:54.384Z,211.27
2018-12-30T23:34:25.616Z,194.03
2018-12-30T23:36:56.844Z,193.10
2018-12-30T23:39:28.116Z,203.97
2018-12-30T23:41:59.432Z,216.00
2018-12-30T23:44:30.654Z,219.40
2018-12-30T23:47:02.043Z,210.97
2018-12-30T23:49:33.269Z,204.30
2018-12-30T23:52:04.601Z,191.30
2018-12-30T23:54:35.948Z,173.03
2018-12-30T23:57:07.148Z,190.37
2018-12-30T23:59:38.384Z,197.87
